Terminal Aerodrome Forecast
Issued by NWS

Home | Current Version | Previous Version | Text Only | Print | Product List | Glossary On
Versions: 1 2 3 4 5 6 7 8 9 10 11 12 13 14 15 16 17 18 19 20 21 22
000
FTUS44 KTSA 222300
TAFBVO
TAF
KBVO 222322Z 2300/2324 17009KT P6SM SCT050
     FM230600 17004KT P6SM SCT050 OVC100
      TEMPO 2307/2311 5SM -SHRA BR BKN050
     FM231100 17004KT P6SM VCSH BKN040
     FM231600 18007KT P6SM BKN050=

USA.gov is the U.S. government's official web portal to all federal, state and local government web resources and services.